Time;durP1;ratioP1;P1;durP2;ratioP2;P2;SDS_P1;SDS_P2;PMS_P1;PMS_P2;Temp;Humidity;BMP_temperature;BMP_pressure;BME280_temperature;BME280_humidity;BME280_pressure;Samples;Min_cycle;Max_cycle;Signal;HPM_P1;HPM_P2
2019/12/06 00:00:54;;;;;;;53.55;20.9;;;;;;;-2.98;71.88965;95568.28;;;;
2019/12/06 00:01:56;;;;;;;53.55;20.9;;;;;;;-2.98;71.88965;95568.28;;;;
2019/12/06 00:02:57;;;;;;;41.14999;19.85;;;;;;;-3.19;72.16504;95574.3;;;;
2019/12/06 00:03:58;;;;;;;41.14999;19.85;;;;;;;-3.19;72.16504;95574.3;;;;
2019/12/06 00:04:59;;;;;;;41.14999;19.85;;;;;;;-3.19;72.16504;95574.3;;;;
2019/12/06 00:06:00;;;;;;;41.14999;19.85;;;;;;;-3.19;72.16504;95574.3;;;;
2019/12/06 00:07:01;;;;;;;41.14999;19.85;;;;;;;-3.19;72.16504;95574.3;;;;
2019/12/06 00:08:02;;;;;;;41.14999;19.85;;;;;;;-3.19;72.16504;95574.3;;;;
2019/12/06 00:09:03;;;;;;;41.14999;19.85;;;;;;;-3.19;72.16504;95574.3;;;;
2019/12/06 00:10:05;;;;;;;41.14999;19.85;;;;;;;-3.19;72.16504;95574.3;;;;
2019/12/06 00:11:06;;;;;;;41.14999;19.85;;;;;;;-3.19;72.16504;95574.3;;;;
2019/12/06 00:12:07;;;;;;;41.14999;19.85;;;;;;;-3.19;72.16504;95574.3;;;;
2019/12/06 00:13:08;;;;;;;38.95;20.75;;;;;;;-3.33;72.28613;95570.81;;;;
2019/12/06 00:14:09;;;;;;;38.95;20.75;;;;;;;-3.33;72.28613;95570.81;;;;
2019/12/06 00:15:11;;;;;;;38.95;20.75;;;;;;;-3.33;72.28613;95570.81;;;;
2019/12/06 00:16:12;;;;;;;38.95;20.75;;;;;;;-3.33;72.28613;95570.81;;;;
2019/12/06 00:17:13;;;;;;;38.95;20.75;;;;;;;-3.33;72.28613;95570.81;;;;
2019/12/06 00:18:14;;;;;;;38.95;20.75;;;;;;;-3.33;72.28613;95570.81;;;;
2019/12/06 00:19:15;;;;;;;38.95;20.75;;;;;;;-3.33;72.28613;95570.81;;;;
2019/12/06 00:20:16;;;;;;;38.95;20.75;;;;;;;-3.33;72.28613;95570.81;;;;
2019/12/06 00:21:18;;;;;;;38.95;20.75;;;;;;;-3.33;72.28613;95570.81;;;;
2019/12/06 00:22:19;;;;;;;38.95;20.75;;;;;;;-3.33;72.28613;95570.81;;;;
2019/12/06 00:23:20;;;;;;;38.95;20.75;;;;;;;-3.33;72.28613;95570.81;;;;
2019/12/06 00:24:21;;;;;;;37.65;20.1;;;;;;;-3.34;72.2832;95587.61;;;;
2019/12/06 00:25:22;;;;;;;37.65;20.1;;;;;;;-3.34;72.2832;95587.61;;;;
2019/12/06 00:26:23;;;;;;;37.65;20.1;;;;;;;-3.34;72.2832;95587.61;;;;
2019/12/06 00:27:24;;;;;;;37.65;20.1;;;;;;;-3.34;72.2832;95587.61;;;;
2019/12/06 00:28:25;;;;;;;37.65;20.1;;;;;;;-3.34;72.2832;95587.61;;;;
2019/12/06 00:29:26;;;;;;;37.65;20.1;;;;;;;-3.34;72.2832;95587.61;;;;
2019/12/06 00:30:27;;;;;;;37.65;20.1;;;;;;;-3.34;72.2832;95587.61;;;;
2019/12/06 00:31:28;;;;;;;37.65;20.1;;;;;;;-3.34;72.2832;95587.61;;;;
2019/12/06 00:32:30;;;;;;;37.65;20.1;;;;;;;-3.34;72.2832;95587.61;;;;
2019/12/06 00:33:31;;;;;;;37.65;20.1;;;;;;;-3.34;72.2832;95587.61;;;;
2019/12/06 00:34:32;;;;;;;36.89999;19.35;;;;;;;-3.36;72.29199;95584.7;;;;
2019/12/06 00:35:33;;;;;;;36.89999;19.35;;;;;;;-3.36;72.29199;95584.7;;;;
2019/12/06 00:36:34;;;;;;;36.89999;19.35;;;;;;;-3.36;72.29199;95584.7;;;;
2019/12/06 00:37:35;;;;;;;36.89999;19.35;;;;;;;-3.36;72.29199;95584.7;;;;
2019/12/06 00:38:37;;;;;;;36.89999;19.35;;;;;;;-3.36;72.29199;95584.7;;;;
2019/12/06 00:39:38;;;;;;;36.89999;19.35;;;;;;;-3.36;72.29199;95584.7;;;;
2019/12/06 00:40:39;;;;;;;36.89999;19.35;;;;;;;-3.36;72.29199;95584.7;;;;
2019/12/06 00:41:40;;;;;;;36.89999;19.35;;;;;;;-3.36;72.29199;95584.7;;;;
2019/12/06 00:42:41;;;;;;;36.89999;19.35;;;;;;;-3.36;72.29199;95584.7;;;;
2019/12/06 00:43:42;;;;;;;36.89999;19.35;;;;;;;-3.36;72.29199;95584.7;;;;
2019/12/06 00:44:44;;;;;;;43.70001;19.75;;;;;;;-3.27;72.39941;95583;;;;
2019/12/06 00:45:45;;;;;;;43.70001;19.75;;;;;;;-3.27;72.39941;95583;;;;
2019/12/06 00:46:46;;;;;;;43.70001;19.75;;;;;;;-3.27;72.39941;95583;;;;
2019/12/06 00:47:47;;;;;;;43.70001;19.75;;;;;;;-3.27;72.39941;95583;;;;
2019/12/06 00:48:48;;;;;;;43.70001;19.75;;;;;;;-3.27;72.39941;95583;;;;
2019/12/06 00:49:49;;;;;;;43.70001;19.75;;;;;;;-3.27;72.39941;95583;;;;
2019/12/06 00:50:50;;;;;;;43.70001;19.75;;;;;;;-3.27;72.39941;95583;;;;
2019/12/06 00:52:02;;;;;;;43.70001;19.75;;;;;;;-3.27;72.39941;95583;;;;
2019/12/06 00:53:03;;;;;;;43.70001;19.75;;;;;;;-3.27;72.39941;95583;;;;
2019/12/06 00:54:04;;;;;;;43.70001;19.75;;;;;;;-3.27;72.39941;95583;;;;
2019/12/06 00:55:05;;;;;;;43.70001;19.75;;;;;;;-3.27;72.39941;95583;;;;
2019/12/06 00:56:06;;;;;;;30.65;17.55;;;;;;;-3.17;72.44824;95593.47;;;;
2019/12/06 00:57:07;;;;;;;30.65;17.55;;;;;;;-3.17;72.44824;95593.47;;;;
2019/12/06 00:58:09;;;;;;;30.65;17.55;;;;;;;-3.17;72.44824;95593.47;;;;
2019/12/06 00:59:10;;;;;;;30.65;17.55;;;;;;;-3.17;72.44824;95593.47;;;;
2019/12/06 01:00:11;;;;;;;30.65;17.55;;;;;;;-3.17;72.44824;95593.47;;;;
2019/12/06 01:01:12;;;;;;;30.65;17.55;;;;;;;-3.17;72.44824;95593.47;;;;
2019/12/06 01:02:13;;;;;;;30.65;17.55;;;;;;;-3.17;72.44824;95593.47;;;;
2019/12/06 01:03:17;;;;;;;30.65;17.55;;;;;;;-3.17;72.44824;95593.47;;;;
2019/12/06 01:04:20;;;;;;;30.65;17.55;;;;;;;-3.17;72.44824;95593.47;;;;
2019/12/06 01:05:22;;;;;;;30.65;17.55;;;;;;;-3.17;72.44824;95593.47;;;;
2019/12/06 01:10:02;;;;;;;24.35;14.9;;;;;;;-3.25;72.50586;95600.84;;;;
2019/12/06 01:11:10;;;;;;;24.35;14.9;;;;;;;-3.25;72.50586;95600.84;;;;
2019/12/06 01:12:12;;;;;;;24.35;14.9;;;;;;;-3.25;72.50586;95600.84;;;;
2019/12/06 01:13:14;;;;;;;24.35;14.9;;;;;;;-3.25;72.50586;95600.84;;;;
2019/12/06 01:14:15;;;;;;;24.35;14.9;;;;;;;-3.25;72.50586;95600.84;;;;
2019/12/06 01:15:16;;;;;;;24.35;14.9;;;;;;;-3.25;72.50586;95600.84;;;;
2019/12/06 01:16:17;;;;;;;24.35;14.9;;;;;;;-3.25;72.50586;95600.84;;;;
2019/12/06 01:17:18;;;;;;;23.3;13.9;;;;;;;-3.35;72.55273;95603.54;;;;
2019/12/06 01:18:19;;;;;;;23.3;13.9;;;;;;;-3.35;72.55273;95603.54;;;;
2019/12/06 01:19:20;;;;;;;23.3;13.9;;;;;;;-3.35;72.55273;95603.54;;;;
2019/12/06 01:20:21;;;;;;;23.3;13.9;;;;;;;-3.35;72.55273;95603.54;;;;
2019/12/06 01:21:22;;;;;;;23.3;13.9;;;;;;;-3.35;72.55273;95603.54;;;;
2019/12/06 01:22:24;;;;;;;23.3;13.9;;;;;;;-3.35;72.55273;95603.54;;;;
2019/12/06 01:23:25;;;;;;;23.3;13.9;;;;;;;-3.35;72.55273;95603.54;;;;
2019/12/06 01:24:26;;;;;;;23.3;13.9;;;;;;;-3.35;72.55273;95603.54;;;;
2019/12/06 01:25:27;;;;;;;23.3;13.9;;;;;;;-3.35;72.55273;95603.54;;;;
2019/12/06 01:26:28;;;;;;;23.3;13.9;;;;;;;-3.35;72.55273;95603.54;;;;
2019/12/06 01:27:29;;;;;;;25.95;15.6;;;;;;;-3.34;72.66602;95599.49;;;;
2019/12/06 01:28:30;;;;;;;25.95;15.6;;;;;;;-3.34;72.66602;95599.49;;;;
2019/12/06 01:29:31;;;;;;;25.95;15.6;;;;;;;-3.34;72.66602;95599.49;;;;
2019/12/06 01:30:32;;;;;;;25.95;15.6;;;;;;;-3.34;72.66602;95599.49;;;;
2019/12/06 01:31:33;;;;;;;25.95;15.6;;;;;;;-3.34;72.66602;95599.49;;;;
2019/12/06 01:32:34;;;;;;;25.95;15.6;;;;;;;-3.34;72.66602;95599.49;;;;
2019/12/06 01:33:35;;;;;;;25.95;15.6;;;;;;;-3.34;72.66602;95599.49;;;;
2019/12/06 01:34:37;;;;;;;25.95;15.6;;;;;;;-3.34;72.66602;95599.49;;;;
2019/12/06 01:35:38;;;;;;;25.95;15.6;;;;;;;-3.34;72.66602;95599.49;;;;
2019/12/06 01:36:39;;;;;;;25.95;15.6;;;;;;;-3.34;72.66602;95599.49;;;;
2019/12/06 01:37:40;;;;;;;27.15;16.25;;;;;;;-3.23;72.7373;95598.42;;;;
2019/12/06 01:38:41;;;;;;;27.15;16.25;;;;;;;-3.23;72.7373;95598.42;;;;
2019/12/06 01:39:42;;;;;;;27.15;16.25;;;;;;;-3.23;72.7373;95598.42;;;;
2019/12/06 01:40:43;;;;;;;27.15;16.25;;;;;;;-3.23;72.7373;95598.42;;;;
2019/12/06 01:41:44;;;;;;;27.15;16.25;;;;;;;-3.23;72.7373;95598.42;;;;
2019/12/06 01:42:45;;;;;;;27.15;16.25;;;;;;;-3.23;72.7373;95598.42;;;;
2019/12/06 01:43:46;;;;;;;27.15;16.25;;;;;;;-3.23;72.7373;95598.42;;;;
2019/12/06 01:44:48;;;;;;;27.15;16.25;;;;;;;-3.23;72.7373;95598.42;;;;
2019/12/06 01:45:49;;;;;;;27.15;16.25;;;;;;;-3.23;72.7373;95598.42;;;;
2019/12/06 01:46:50;;;;;;;27.15;16.25;;;;;;;-3.23;72.7373;95598.42;;;;
2019/12/06 01:47:51;;;;;;;27.15;16.25;;;;;;;-3.23;72.7373;95598.42;;;;
2019/12/06 01:48:52;;;;;;;32.25001;15.1;;;;;;;-3.19;72.85938;95596.73;;;;
2019/12/06 01:49:53;;;;;;;32.25001;15.1;;;;;;;-3.19;72.85938;95596.73;;;;
2019/12/06 01:50:54;;;;;;;32.25001;15.1;;;;;;;-3.19;72.85938;95596.73;;;;
2019/12/06 01:51:55;;;;;;;32.25001;15.1;;;;;;;-3.19;72.85938;95596.73;;;;
2019/12/06 01:52:56;;;;;;;32.25001;15.1;;;;;;;-3.19;72.85938;95596.73;;;;
2019/12/06 01:53:58;;;;;;;32.25001;15.1;;;;;;;-3.19;72.85938;95596.73;;;;
2019/12/06 01:54:59;;;;;;;32.25001;15.1;;;;;;;-3.19;72.85938;95596.73;;;;
2019/12/06 01:56:00;;;;;;;32.25001;15.1;;;;;;;-3.19;72.85938;95596.73;;;;
2019/12/06 01:57:01;;;;;;;32.25001;15.1;;;;;;;-3.19;72.85938;95596.73;;;;
2019/12/06 01:58:02;;;;;;;32.25001;15.1;;;;;;;-3.19;72.85938;95596.73;;;;
2019/12/06 01:59:03;;;;;;;34.84999;15.55;;;;;;;-3.1;72.94727;95587.05;;;;
2019/12/06 02:00:05;;;;;;;34.84999;15.55;;;;;;;-3.1;72.94727;95587.05;;;;
2019/12/06 02:01:06;;;;;;;34.84999;15.55;;;;;;;-3.1;72.94727;95587.05;;;;
2019/12/06 02:02:07;;;;;;;34.84999;15.55;;;;;;;-3.1;72.94727;95587.05;;;;
2019/12/06 02:03:09;;;;;;;34.84999;15.55;;;;;;;-3.1;72.94727;95587.05;;;;
2019/12/06 02:04:10;;;;;;;34.84999;15.55;;;;;;;-3.1;72.94727;95587.05;;;;
2019/12/06 02:05:11;;;;;;;34.84999;15.55;;;;;;;-3.1;72.94727;95587.05;;;;
2019/12/06 02:06:12;;;;;;;34.84999;15.55;;;;;;;-3.1;72.94727;95587.05;;;;
2019/12/06 02:07:14;;;;;;;34.84999;15.55;;;;;;;-3.1;72.94727;95587.05;;;;
2019/12/06 02:08:15;;;;;;;34.84999;15.55;;;;;;;-3.1;72.94727;95587.05;;;;
2019/12/06 02:09:16;;;;;;;34.84999;15.55;;;;;;;-3.1;72.94727;95587.05;;;;
2019/12/06 02:10:17;;;;;;;34.84999;15.55;;;;;;;-3.1;72.94727;95587.05;;;;
2019/12/06 02:11:21;;;;;;;34.84999;15.55;;;;;;;-3.1;72.94727;95587.05;;;;
2019/12/06 02:12:23;;;;;;;34.84999;15.55;;;;;;;-3.1;72.94727;95587.05;;;;
2019/12/06 02:13:25;;;;;;;34.84999;15.55;;;;;;;-3.1;72.94727;95587.05;;;;
2019/12/06 02:14:26;;;;;;;34.84999;15.55;;;;;;;-3.1;72.94727;95587.05;;;;
2019/12/06 02:15:27;;;;;;;34.84999;15.55;;;;;;;-3.1;72.94727;95587.05;;;;
2019/12/06 02:16:29;;;;;;;34.84999;15.55;;;;;;;-3.1;72.94727;95587.05;;;;
2019/12/06 02:17:31;;;;;;;34.84999;15.55;;;;;;;-3.1;72.94727;95587.05;;;;
2019/12/06 02:18:32;;;;;;;34.84999;15.55;;;;;;;-3.1;72.94727;95587.05;;;;
2019/12/06 02:19:33;;;;;;;34.84999;15.55;;;;;;;-3.1;72.94727;95587.05;;;;
2019/12/06 02:20:35;;;;;;;20.75;12.8;;;;;;;-3.23;72.87207;95565.42;;;;
2019/12/06 02:21:36;;;;;;;20.75;12.8;;;;;;;-3.23;72.87207;95565.42;;;;
2019/12/06 02:22:37;;;;;;;20.75;12.8;;;;;;;-3.23;72.87207;95565.42;;;;
2019/12/06 02:23:39;;;;;;;20.75;12.8;;;;;;;-3.23;72.87207;95565.42;;;;
2019/12/06 02:24:40;;;;;;;20.75;12.8;;;;;;;-3.23;72.87207;95565.42;;;;
2019/12/06 02:25:41;;;;;;;20.75;12.8;;;;;;;-3.23;72.87207;95565.42;;;;
2019/12/06 02:26:42;;;;;;;20.75;12.8;;;;;;;-3.23;72.87207;95565.42;;;;
2019/12/06 02:27:43;;;;;;;20.75;12.8;;;;;;;-3.23;72.87207;95565.42;;;;
2019/12/06 02:28:44;;;;;;;20.75;12.8;;;;;;;-3.23;72.87207;95565.42;;;;
2019/12/06 02:29:45;;;;;;;20.75;12.8;;;;;;;-3.23;72.87207;95565.42;;;;
2019/12/06 02:30:46;;;;;;;20.75;12.8;;;;;;;-3.23;72.87207;95565.42;;;;
2019/12/06 02:31:48;;;;;;;24.6;13.9;;;;;;;-3.64;73.58887;95555.3;;;;
2019/12/06 02:32:49;;;;;;;24.6;13.9;;;;;;;-3.64;73.58887;95555.3;;;;
2019/12/06 02:33:50;;;;;;;24.6;13.9;;;;;;;-3.64;73.58887;95555.3;;;;
2019/12/06 02:34:51;;;;;;;24.6;13.9;;;;;;;-3.64;73.58887;95555.3;;;;
2019/12/06 02:35:52;;;;;;;24.6;13.9;;;;;;;-3.64;73.58887;95555.3;;;;
2019/12/06 02:36:53;;;;;;;24.6;13.9;;;;;;;-3.64;73.58887;95555.3;;;;
2019/12/06 02:37:55;;;;;;;24.6;13.9;;;;;;;-3.64;73.58887;95555.3;;;;
2019/12/06 02:38:56;;;;;;;24.6;13.9;;;;;;;-3.64;73.58887;95555.3;;;;
2019/12/06 02:39:58;;;;;;;24.6;13.9;;;;;;;-3.64;73.58887;95555.3;;;;
2019/12/06 02:40:59;;;;;;;24.6;13.9;;;;;;;-3.64;73.58887;95555.3;;;;
2019/12/06 02:42:00;;;;;;;24.3;13.9;;;;;;;-4.07;73.9502;95543.95;;;;
2019/12/06 02:43:01;;;;;;;24.3;13.9;;;;;;;-4.07;73.9502;95543.95;;;;
2019/12/06 02:44:03;;;;;;;24.3;13.9;;;;;;;-4.07;73.9502;95543.95;;;;
2019/12/06 02:50:20;;;;;;;24.3;13.9;;;;;;;-4.07;73.9502;95543.95;;;;
2019/12/06 02:51:26;;;;;;;24.3;13.9;;;;;;;-4.07;73.9502;95543.95;;;;
2019/12/06 02:52:31;;;;;;;24.3;13.8;;;;;;;-4.43;74.10254;95537.66;;;;
2019/12/06 02:53:32;;;;;;;24.3;13.8;;;;;;;-4.43;74.10254;95537.66;;;;
2019/12/06 02:54:33;;;;;;;24.3;13.8;;;;;;;-4.43;74.10254;95537.66;;;;
2019/12/06 02:55:36;;;;;;;24.3;13.8;;;;;;;-4.43;74.10254;95537.66;;;;
2019/12/06 02:56:40;;;;;;;24.3;13.8;;;;;;;-4.43;74.10254;95537.66;;;;
2019/12/06 02:57:42;;;;;;;24.3;13.8;;;;;;;-4.43;74.10254;95537.66;;;;
2019/12/06 02:58:43;;;;;;;24.3;13.8;;;;;;;-4.43;74.10254;95537.66;;;;
2019/12/06 02:59:44;;;;;;;24.3;13.8;;;;;;;-4.43;74.10254;95537.66;;;;
2019/12/06 03:00:46;;;;;;;24.3;13.8;;;;;;;-4.43;74.10254;95537.66;;;;
2019/12/06 03:01:47;;;;;;;24.3;13.8;;;;;;;-4.43;74.10254;95537.66;;;;
2019/12/06 03:02:48;;;;;;;26.85;13.55;;;;;;;-4.6;74.2373;95533.49;;;;
2019/12/06 03:03:49;;;;;;;26.85;13.55;;;;;;;-4.6;74.2373;95533.49;;;;
2019/12/06 03:04:50;;;;;;;26.85;13.55;;;;;;;-4.6;74.2373;95533.49;;;;
2019/12/06 03:05:51;;;;;;;26.85;13.55;;;;;;;-4.6;74.2373;95533.49;;;;
2019/12/06 03:06:52;;;;;;;26.85;13.55;;;;;;;-4.6;74.2373;95533.49;;;;
2019/12/06 03:07:54;;;;;;;26.85;13.55;;;;;;;-4.6;74.2373;95533.49;;;;
2019/12/06 03:08:55;;;;;;;26.85;13.55;;;;;;;-4.6;74.2373;95533.49;;;;
2019/12/06 03:09:56;;;;;;;26.85;13.55;;;;;;;-4.6;74.2373;95533.49;;;;
2019/12/06 03:10:57;;;;;;;26.85;13.55;;;;;;;-4.6;74.2373;95533.49;;;;
2019/12/06 03:11:58;;;;;;;26.85;13.55;;;;;;;-4.6;74.2373;95533.49;;;;
2019/12/06 03:12:59;;;;;;;26.85;13.55;;;;;;;-4.6;74.2373;95533.49;;;;
2019/12/06 03:14:01;;;;;;;26.05;14.05;;;;;;;-4.73;74.18164;95532.11;;;;
2019/12/06 03:15:02;;;;;;;26.05;14.05;;;;;;;-4.73;74.18164;95532.11;;;;
2019/12/06 03:16:03;;;;;;;26.05;14.05;;;;;;;-4.73;74.18164;95532.11;;;;
2019/12/06 03:17:04;;;;;;;26.05;14.05;;;;;;;-4.73;74.18164;95532.11;;;;
2019/12/06 03:18:05;;;;;;;26.05;14.05;;;;;;;-4.73;74.18164;95532.11;;;;
2019/12/06 03:19:07;;;;;;;26.05;14.05;;;;;;;-4.73;74.18164;95532.11;;;;
2019/12/06 03:20:08;;;;;;;26.05;14.05;;;;;;;-4.73;74.18164;95532.11;;;;
2019/12/06 03:21:09;;;;;;;26.05;14.05;;;;;;;-4.73;74.18164;95532.11;;;;
2019/12/06 03:22:10;;;;;;;26.05;14.05;;;;;;;-4.73;74.18164;95532.11;;;;
2019/12/06 03:23:11;;;;;;;26.05;14.05;;;;;;;-4.73;74.18164;95532.11;;;;
2019/12/06 03:24:12;;;;;;;27.05;13.85;;;;;;;-4.96;74.10059;95524.94;;;;
2019/12/06 03:25:14;;;;;;;27.05;13.85;;;;;;;-4.96;74.10059;95524.94;;;;
2019/12/06 03:26:15;;;;;;;27.05;13.85;;;;;;;-4.96;74.10059;95524.94;;;;
2019/12/06 03:27:16;;;;;;;27.05;13.85;;;;;;;-4.96;74.10059;95524.94;;;;
2019/12/06 03:28:17;;;;;;;27.05;13.85;;;;;;;-4.96;74.10059;95524.94;;;;
2019/12/06 03:29:18;;;;;;;27.05;13.85;;;;;;;-4.96;74.10059;95524.94;;;;
2019/12/06 03:30:19;;;;;;;27.05;13.85;;;;;;;-4.96;74.10059;95524.94;;;;
2019/12/06 03:31:20;;;;;;;27.05;13.85;;;;;;;-4.96;74.10059;95524.94;;;;
2019/12/06 03:32:21;;;;;;;27.05;13.85;;;;;;;-4.96;74.10059;95524.94;;;;
2019/12/06 03:33:23;;;;;;;27.05;13.85;;;;;;;-4.96;74.10059;95524.94;;;;
2019/12/06 03:34:24;;;;;;;27.05;13.85;;;;;;;-4.96;74.10059;95524.94;;;;
2019/12/06 03:35:25;;;;;;;27.45;14.2;;;;;;;-5.16;74.11719;95529.42;;;;
2019/12/06 03:36:26;;;;;;;27.45;14.2;;;;;;;-5.16;74.11719;95529.42;;;;
2019/12/06 03:37:27;;;;;;;27.45;14.2;;;;;;;-5.16;74.11719;95529.42;;;;
2019/12/06 03:38:28;;;;;;;27.45;14.2;;;;;;;-5.16;74.11719;95529.42;;;;
2019/12/06 03:39:29;;;;;;;27.45;14.2;;;;;;;-5.16;74.11719;95529.42;;;;
2019/12/06 03:40:30;;;;;;;27.45;14.2;;;;;;;-5.16;74.11719;95529.42;;;;
2019/12/06 03:41:32;;;;;;;27.45;14.2;;;;;;;-5.16;74.11719;95529.42;;;;
2019/12/06 03:42:33;;;;;;;27.45;14.2;;;;;;;-5.16;74.11719;95529.42;;;;
2019/12/06 03:43:34;;;;;;;27.45;14.2;;;;;;;-5.16;74.11719;95529.42;;;;
2019/12/06 03:44:36;;;;;;;27.45;14.2;;;;;;;-5.16;74.11719;95529.42;;;;
2019/12/06 03:45:37;;;;;;;26.35;13.1;;;;;;;-5.33;74.01758;95529.58;;;;
2019/12/06 03:46:43;;;;;;;26.35;13.1;;;;;;;-5.33;74.01758;95529.58;;;;
2019/12/06 03:47:46;;;;;;;26.35;13.1;;;;;;;-5.33;74.01758;95529.58;;;;
2019/12/06 03:48:49;;;;;;;26.35;13.1;;;;;;;-5.33;74.01758;95529.58;;;;
2019/12/06 03:49:56;;;;;;;26.35;13.1;;;;;;;-5.33;74.01758;95529.58;;;;
2019/12/06 03:51:00;;;;;;;26.35;13.1;;;;;;;-5.33;74.01758;95529.58;;;;
2019/12/06 03:52:12;;;;;;;26.35;13.1;;;;;;;-5.33;74.01758;95529.58;;;;
2019/12/06 03:53:16;;;;;;;26.35;13.1;;;;;;;-5.33;74.01758;95529.58;;;;
2019/12/06 03:54:20;;;;;;;26.35;13.1;;;;;;;-5.33;74.01758;95529.58;;;;
2019/12/06 03:55:27;;;;;;;26.35;13.1;;;;;;;-5.33;74.01758;95529.58;;;;
2019/12/06 03:56:32;;;;;;;25.8;13.35;;;;;;;-5.45;73.78125;95519.62;;;;
2019/12/06 03:57:40;;;;;;;25.8;13.35;;;;;;;-5.45;73.78125;95519.62;;;;
2019/12/06 03:58:51;;;;;;;25.8;13.35;;;;;;;-5.45;73.78125;95519.62;;;;
2019/12/06 03:59:56;;;;;;;25.8;13.35;;;;;;;-5.45;73.78125;95519.62;;;;
2019/12/06 04:00:59;;;;;;;25.8;13.35;;;;;;;-5.45;73.78125;95519.62;;;;
2019/12/06 04:02:01;;;;;;;25.8;13.35;;;;;;;-5.45;73.78125;95519.62;;;;
2019/12/06 04:03:11;;;;;;;25.8;13.35;;;;;;;-5.45;73.78125;95519.62;;;;
2019/12/06 04:04:15;;;;;;;25.8;13.35;;;;;;;-5.45;73.78125;95519.62;;;;
2019/12/06 04:05:29;;;;;;;25.8;13.35;;;;;;;-5.45;73.78125;95519.62;;;;
2019/12/06 04:06:37;;;;;;;22.15;12.45;;;;;;;-5.57;73.64551;95525.96;;;;
2019/12/06 04:07:40;;;;;;;22.15;12.45;;;;;;;-5.57;73.64551;95525.96;;;;
2019/12/06 04:08:48;;;;;;;22.15;12.45;;;;;;;-5.57;73.64551;95525.96;;;;
2019/12/06 04:10:01;;;;;;;22.15;12.45;;;;;;;-5.57;73.64551;95525.96;;;;
2019/12/06 04:11:37;;;;;;;22.15;12.45;;;;;;;-5.57;73.64551;95525.96;;;;
2019/12/06 04:18:16;;;;;;;22.05;12.8;;;;;;;-5.68;73.49219;95525.62;;;;
2019/12/06 04:19:17;;;;;;;22.05;12.8;;;;;;;-5.68;73.49219;95525.62;;;;
2019/12/06 04:20:18;;;;;;;22.05;12.8;;;;;;;-5.68;73.49219;95525.62;;;;
2019/12/06 04:21:19;;;;;;;22.05;12.8;;;;;;;-5.68;73.49219;95525.62;;;;
2019/12/06 04:22:20;;;;;;;22.05;12.8;;;;;;;-5.68;73.49219;95525.62;;;;
2019/12/06 04:23:21;;;;;;;22.05;12.8;;;;;;;-5.68;73.49219;95525.62;;;;
2019/12/06 04:24:22;;;;;;;22.05;12.8;;;;;;;-5.68;73.49219;95525.62;;;;
2019/12/06 04:25:24;;;;;;;22.05;12.8;;;;;;;-5.68;73.49219;95525.62;;;;
2019/12/06 04:26:25;;;;;;;22.05;12.8;;;;;;;-5.68;73.49219;95525.62;;;;
2019/12/06 04:27:26;;;;;;;22.05;12.8;;;;;;;-5.68;73.49219;95525.62;;;;
2019/12/06 04:28:27;;;;;;;21.55;11.75;;;;;;;-5.85;73.5127;95537.28;;;;
2019/12/06 04:29:29;;;;;;;21.55;11.75;;;;;;;-5.85;73.5127;95537.28;;;;
2019/12/06 04:30:30;;;;;;;21.55;11.75;;;;;;;-5.85;73.5127;95537.28;;;;
2019/12/06 04:31:31;;;;;;;21.55;11.75;;;;;;;-5.85;73.5127;95537.28;;;;
2019/12/06 04:32:32;;;;;;;21.55;11.75;;;;;;;-5.85;73.5127;95537.28;;;;
2019/12/06 04:33:34;;;;;;;21.55;11.75;;;;;;;-5.85;73.5127;95537.28;;;;
2019/12/06 04:34:35;;;;;;;21.55;11.75;;;;;;;-5.85;73.5127;95537.28;;;;
2019/12/06 04:35:36;;;;;;;21.55;11.75;;;;;;;-5.85;73.5127;95537.28;;;;
2019/12/06 04:36:37;;;;;;;21.55;11.75;;;;;;;-5.85;73.5127;95537.28;;;;
2019/12/06 04:37:38;;;;;;;21.55;11.75;;;;;;;-5.85;73.5127;95537.28;;;;
2019/12/06 04:38:39;;;;;;;25.25;12.55;;;;;;;-6;73.6709;95533.73;;;;
2019/12/06 04:39:41;;;;;;;25.25;12.55;;;;;;;-6;73.6709;95533.73;;;;
2019/12/06 04:40:42;;;;;;;25.25;12.55;;;;;;;-6;73.6709;95533.73;;;;
2019/12/06 04:41:43;;;;;;;25.25;12.55;;;;;;;-6;73.6709;95533.73;;;;
2019/12/06 04:42:44;;;;;;;25.25;12.55;;;;;;;-6;73.6709;95533.73;;;;
2019/12/06 04:43:46;;;;;;;25.25;12.55;;;;;;;-6;73.6709;95533.73;;;;
2019/12/06 04:44:47;;;;;;;25.25;12.55;;;;;;;-6;73.6709;95533.73;;;;
2019/12/06 04:45:48;;;;;;;25.25;12.55;;;;;;;-6;73.6709;95533.73;;;;
2019/12/06 04:46:49;;;;;;;25.25;12.55;;;;;;;-6;73.6709;95533.73;;;;
2019/12/06 04:47:50;;;;;;;25.25;12.55;;;;;;;-6;73.6709;95533.73;;;;
2019/12/06 04:48:51;;;;;;;25.25;12.55;;;;;;;-6;73.6709;95533.73;;;;
2019/12/06 04:49:52;;;;;;;24.1;12.5;;;;;;;-6.1;73.62402;95544.69;;;;
2019/12/06 04:50:53;;;;;;;24.1;12.5;;;;;;;-6.1;73.62402;95544.69;;;;
2019/12/06 04:51:54;;;;;;;24.1;12.5;;;;;;;-6.1;73.62402;95544.69;;;;
2019/12/06 04:52:55;;;;;;;24.1;12.5;;;;;;;-6.1;73.62402;95544.69;;;;
2019/12/06 04:53:56;;;;;;;24.1;12.5;;;;;;;-6.1;73.62402;95544.69;;;;
2019/12/06 04:54:58;;;;;;;24.1;12.5;;;;;;;-6.1;73.62402;95544.69;;;;
2019/12/06 04:55:59;;;;;;;24.1;12.5;;;;;;;-6.1;73.62402;95544.69;;;;
2019/12/06 04:57:00;;;;;;;24.1;12.5;;;;;;;-6.1;73.62402;95544.69;;;;
2019/12/06 04:58:01;;;;;;;24.1;12.5;;;;;;;-6.1;73.62402;95544.69;;;;
2019/12/06 04:59:02;;;;;;;24.1;12.5;;;;;;;-6.1;73.62402;95544.69;;;;
2019/12/06 05:00:03;;;;;;;24.3;11.85;;;;;;;-6.21;73.5625;95552.15;;;;
2019/12/06 05:01:04;;;;;;;24.3;11.85;;;;;;;-6.21;73.5625;95552.15;;;;
2019/12/06 05:02:05;;;;;;;24.3;11.85;;;;;;;-6.21;73.5625;95552.15;;;;
2019/12/06 05:03:06;;;;;;;24.3;11.85;;;;;;;-6.21;73.5625;95552.15;;;;
2019/12/06 05:04:07;;;;;;;24.3;11.85;;;;;;;-6.21;73.5625;95552.15;;;;
2019/12/06 05:05:08;;;;;;;24.3;11.85;;;;;;;-6.21;73.5625;95552.15;;;;
2019/12/06 05:06:10;;;;;;;24.3;11.85;;;;;;;-6.21;73.5625;95552.15;;;;
2019/12/06 05:07:11;;;;;;;24.3;11.85;;;;;;;-6.21;73.5625;95552.15;;;;
2019/12/06 05:08:12;;;;;;;24.3;11.85;;;;;;;-6.21;73.5625;95552.15;;;;
2019/12/06 05:09:13;;;;;;;24.3;11.85;;;;;;;-6.21;73.5625;95552.15;;;;
2019/12/06 05:10:14;;;;;;;22.7;12.15;;;;;;;-6.29;73.61133;95549.33;;;;
2019/12/06 05:11:15;;;;;;;22.7;12.15;;;;;;;-6.29;73.61133;95549.33;;;;
2019/12/06 05:12:17;;;;;;;22.7;12.15;;;;;;;-6.29;73.61133;95549.33;;;;
2019/12/06 05:13:18;;;;;;;22.7;12.15;;;;;;;-6.29;73.61133;95549.33;;;;
2019/12/06 05:14:19;;;;;;;22.7;12.15;;;;;;;-6.29;73.61133;95549.33;;;;
2019/12/06 05:15:20;;;;;;;22.7;12.15;;;;;;;-6.29;73.61133;95549.33;;;;
2019/12/06 05:16:21;;;;;;;22.7;12.15;;;;;;;-6.29;73.61133;95549.33;;;;
2019/12/06 05:17:22;;;;;;;22.7;12.15;;;;;;;-6.29;73.61133;95549.33;;;;
2019/12/06 05:18:23;;;;;;;22.7;12.15;;;;;;;-6.29;73.61133;95549.33;;;;
2019/12/06 05:19:24;;;;;;;22.7;12.15;;;;;;;-6.29;73.61133;95549.33;;;;
2019/12/06 05:20:25;;;;;;;22.7;12.15;;;;;;;-6.29;73.61133;95549.33;;;;
2019/12/06 05:21:27;;;;;;;20.75;11.55;;;;;;;-6.19;73.36035;95537.11;;;;
2019/12/06 05:22:28;;;;;;;20.75;11.55;;;;;;;-6.19;73.36035;95537.11;;;;
2019/12/06 05:23:29;;;;;;;20.75;11.55;;;;;;;-6.19;73.36035;95537.11;;;;
2019/12/06 05:24:30;;;;;;;20.75;11.55;;;;;;;-6.19;73.36035;95537.11;;;;
2019/12/06 05:25:55;;;;;;;20.75;11.55;;;;;;;-6.19;73.36035;95537.11;;;;
2019/12/06 05:27:02;;;;;;;20.75;11.55;;;;;;;-6.19;73.36035;95537.11;;;;
2019/12/06 05:28:03;;;;;;;20.75;11.55;;;;;;;-6.19;73.36035;95537.11;;;;
2019/12/06 05:29:04;;;;;;;20.75;11.55;;;;;;;-6.19;73.36035;95537.11;;;;
2019/12/06 05:30:06;;;;;;;20.75;11.55;;;;;;;-6.19;73.36035;95537.11;;;;
2019/12/06 05:31:07;;;;;;;20.75;11.55;;;;;;;-6.19;73.36035;95537.11;;;;
2019/12/06 05:32:36;;;;;;;24.55;12.5;;;;;;;-6.08;73.1123;95538.75;;;;
2019/12/06 05:33:43;;;;;;;24.55;12.5;;;;;;;-6.08;73.1123;95538.75;;;;
2019/12/06 05:34:45;;;;;;;24.55;12.5;;;;;;;-6.08;73.1123;95538.75;;;;
2019/12/06 05:35:46;;;;;;;24.55;12.5;;;;;;;-6.08;73.1123;95538.75;;;;
2019/12/06 05:36:48;;;;;;;24.55;12.5;;;;;;;-6.08;73.1123;95538.75;;;;
2019/12/06 05:37:49;;;;;;;24.55;12.5;;;;;;;-6.08;73.1123;95538.75;;;;
2019/12/06 05:38:50;;;;;;;24.55;12.5;;;;;;;-6.08;73.1123;95538.75;;;;
2019/12/06 05:39:51;;;;;;;24.55;12.5;;;;;;;-6.08;73.1123;95538.75;;;;
2019/12/06 05:40:52;;;;;;;24.55;12.5;;;;;;;-6.08;73.1123;95538.75;;;;
2019/12/06 05:41:53;;;;;;;24.55;12.5;;;;;;;-6.08;73.1123;95538.75;;;;
2019/12/06 05:42:54;;;;;;;23.4;11.45;;;;;;;-6.02;72.99023;95528.62;;;;
2019/12/06 05:43:56;;;;;;;23.4;11.45;;;;;;;-6.02;72.99023;95528.62;;;;
2019/12/06 05:44:57;;;;;;;23.4;11.45;;;;;;;-6.02;72.99023;95528.62;;;;
2019/12/06 05:45:58;;;;;;;23.4;11.45;;;;;;;-6.02;72.99023;95528.62;;;;
2019/12/06 05:46:59;;;;;;;23.4;11.45;;;;;;;-6.02;72.99023;95528.62;;;;
2019/12/06 05:48:00;;;;;;;23.4;11.45;;;;;;;-6.02;72.99023;95528.62;;;;
2019/12/06 05:49:01;;;;;;;23.4;11.45;;;;;;;-6.02;72.99023;95528.62;;;;
2019/12/06 05:50:02;;;;;;;23.4;11.45;;;;;;;-6.02;72.99023;95528.62;;;;
2019/12/06 05:51:03;;;;;;;23.4;11.45;;;;;;;-6.02;72.99023;95528.62;;;;
2019/12/06 05:52:04;;;;;;;23.4;11.45;;;;;;;-6.02;72.99023;95528.62;;;;
2019/12/06 05:53:05;;;;;;;24.3;12.2;;;;;;;-6.05;72.93359;95533.25;;;;
2019/12/06 05:54:06;;;;;;;24.3;12.2;;;;;;;-6.05;72.93359;95533.25;;;;
2019/12/06 05:55:08;;;;;;;24.3;12.2;;;;;;;-6.05;72.93359;95533.25;;;;
2019/12/06 05:56:09;;;;;;;24.3;12.2;;;;;;;-6.05;72.93359;95533.25;;;;
2019/12/06 05:57:10;;;;;;;24.3;12.2;;;;;;;-6.05;72.93359;95533.25;;;;
2019/12/06 05:58:11;;;;;;;24.3;12.2;;;;;;;-6.05;72.93359;95533.25;;;;
2019/12/06 05:59:12;;;;;;;24.3;12.2;;;;;;;-6.05;72.93359;95533.25;;;;